sensor_id;sensor_type;location;lat;lon;timestamp;temperature;humidity
4354;DHT22;11018;51.258;6.806;2023-06-05T00:00:52;15.80;27.20
4354;DHT22;11018;51.258;6.806;2023-06-05T00:03:17;15.80;28.00
4354;DHT22;11018;51.258;6.806;2023-06-05T00:05:43;15.80;28.80
4354;DHT22;11018;51.258;6.806;2023-06-05T00:08:08;15.70;29.40
4354;DHT22;11018;51.258;6.806;2023-06-05T00:10:34;15.70;30.30
4354;DHT22;11018;51.258;6.806;2023-06-05T00:13:00;15.70;31.00
4354;DHT22;11018;51.258;6.806;2023-06-05T00:15:25;15.70;31.80
4354;DHT22;11018;51.258;6.806;2023-06-05T00:17:51;15.60;32.30
4354;DHT22;11018;51.258;6.806;2023-06-05T00:20:17;15.60;33.00
4354;DHT22;11018;51.258;6.806;2023-06-05T00:22:42;15.60;33.70
4354;DHT22;11018;51.258;6.806;2023-06-05T00:25:12;15.40;34.90
4354;DHT22;11018;51.258;6.806;2023-06-05T00:27:38;15.50;35.70
4354;DHT22;11018;51.258;6.806;2023-06-05T00:30:09;15.50;35.90
4354;DHT22;11018;51.258;6.806;2023-06-05T00:32:35;15.50;36.60
4354;DHT22;11018;51.258;6.806;2023-06-05T00:35:01;15.50;37.20
4354;DHT22;11018;51.258;6.806;2023-06-05T00:37:27;15.40;37.80
4354;DHT22;11018;51.258;6.806;2023-06-05T00:39:53;15.40;38.50
4354;DHT22;11018;51.258;6.806;2023-06-05T00:42:18;15.30;38.80
4354;DHT22;11018;51.258;6.806;2023-06-05T00:44:44;15.30;39.30
4354;DHT22;11018;51.258;6.806;2023-06-05T00:47:09;15.20;40.10
4354;DHT22;11018;51.258;6.806;2023-06-05T00:49:36;15.30;40.80
4354;DHT22;11018;51.258;6.806;2023-06-05T00:52:02;15.30;40.90
4354;DHT22;11018;51.258;6.806;2023-06-05T00:54:28;15.20;41.30
4354;DHT22;11018;51.258;6.806;2023-06-05T00:56:55;15.20;42.00
4354;DHT22;11018;51.258;6.806;2023-06-05T00:59:21;15.20;42.50
4354;DHT22;11018;51.258;6.806;2023-06-05T01:01:46;15.10;43.20
4354;DHT22;11018;51.258;6.806;2023-06-05T01:04:13;15.10;43.50
4354;DHT22;11018;51.258;6.806;2023-06-05T01:06:39;15.10;43.50
4354;DHT22;11018;51.258;6.806;2023-06-05T01:09:07;15.10;44.00
4354;DHT22;11018;51.258;6.806;2023-06-05T01:14:44;15.00;45.40
4354;DHT22;11018;51.258;6.806;2023-06-05T01:17:13;15.00;45.60
4354;DHT22;11018;51.258;6.806;2023-06-05T01:19:39;15.00;46.00
4354;DHT22;11018;51.258;6.806;2023-06-05T01:22:05;14.90;46.50
4354;DHT22;11018;51.258;6.806;2023-06-05T01:24:33;14.90;46.80
4354;DHT22;11018;51.258;6.806;2023-06-05T01:27:12;14.90;47.40
4354;DHT22;11018;51.258;6.806;2023-06-05T01:35:20;14.80;48.00
4354;DHT22;11018;51.258;6.806;2023-06-05T01:37:48;14.70;48.30
4354;DHT22;11018;51.258;6.806;2023-06-05T01:40:16;14.70;49.30
4354;DHT22;11018;51.258;6.806;2023-06-05T01:42:43;14.70;49.80
4354;DHT22;11018;51.258;6.806;2023-06-05T01:45:10;14.60;49.60
4354;DHT22;11018;51.258;6.806;2023-06-05T01:47:37;14.60;49.60
4354;DHT22;11018;51.258;6.806;2023-06-05T01:50:07;14.70;49.50
4354;DHT22;11018;51.258;6.806;2023-06-05T01:52:34;14.60;49.60
4354;DHT22;11018;51.258;6.806;2023-06-05T01:55:01;14.60;49.60
4354;DHT22;11018;51.258;6.806;2023-06-05T01:57:28;14.60;50.10
4354;DHT22;11018;51.258;6.806;2023-06-05T01:59:54;14.60;49.90
4354;DHT22;11018;51.258;6.806;2023-06-05T02:02:20;14.50;50.90
4354;DHT22;11018;51.258;6.806;2023-06-05T02:04:47;14.40;51.20
4354;DHT22;11018;51.258;6.806;2023-06-05T02:07:13;14.40;52.40
4354;DHT22;11018;51.258;6.806;2023-06-05T02:09:40;14.40;51.70
4354;DHT22;11018;51.258;6.806;2023-06-05T02:12:06;14.40;51.80
4354;DHT22;11018;51.258;6.806;2023-06-05T02:14:33;14.30;52.80
4354;DHT22;11018;51.258;6.806;2023-06-05T02:17:04;14.30;53.10
4354;DHT22;11018;51.258;6.806;2023-06-05T02:19:33;14.30;52.90
4354;DHT22;11018;51.258;6.806;2023-06-05T02:21:59;14.30;52.50
4354;DHT22;11018;51.258;6.806;2023-06-05T02:24:24;14.30;52.20
4354;DHT22;11018;51.258;6.806;2023-06-05T02:26:53;14.20;53.30
4354;DHT22;11018;51.258;6.806;2023-06-05T02:29:18;14.20;53.50
4354;DHT22;11018;51.258;6.806;2023-06-05T02:31:44;14.20;54.30
4354;DHT22;11018;51.258;6.806;2023-06-05T02:34:10;14.10;54.00
4354;DHT22;11018;51.258;6.806;2023-06-05T02:36:35;14.10;54.40
4354;DHT22;11018;51.258;6.806;2023-06-05T02:39:02;14.10;54.60
4354;DHT22;11018;51.258;6.806;2023-06-05T02:41:30;14.00;54.80
4354;DHT22;11018;51.258;6.806;2023-06-05T02:43:55;14.00;55.20
4354;DHT22;11018;51.258;6.806;2023-06-05T02:46:21;14.00;55.50
4354;DHT22;11018;51.258;6.806;2023-06-05T02:48:48;14.00;56.10
4354;DHT22;11018;51.258;6.806;2023-06-05T02:51:13;13.90;56.40
4354;DHT22;11018;51.258;6.806;2023-06-05T02:53:39;13.90;57.20
4354;DHT22;11018;51.258;6.806;2023-06-05T02:56:05;13.80;57.00
4354;DHT22;11018;51.258;6.806;2023-06-05T02:58:30;13.80;57.00
4354;DHT22;11018;51.258;6.806;2023-06-05T03:00:59;13.80;57.40
4354;DHT22;11018;51.258;6.806;2023-06-05T03:03:28;13.70;58.00
4354;DHT22;11018;51.258;6.806;2023-06-05T03:05:56;13.80;58.10
4354;DHT22;11018;51.258;6.806;2023-06-05T03:08:21;13.70;58.30
4354;DHT22;11018;51.258;6.806;2023-06-05T03:10:47;13.70;58.70
4354;DHT22;11018;51.258;6.806;2023-06-05T03:13:13;13.70;58.80
4354;DHT22;11018;51.258;6.806;2023-06-05T03:15:38;13.60;59.00
4354;DHT22;11018;51.258;6.806;2023-06-05T03:18:05;13.60;59.30
4354;DHT22;11018;51.258;6.806;2023-06-05T03:20:30;13.60;59.60
4354;DHT22;11018;51.258;6.806;2023-06-05T03:22:56;13.50;59.50
4354;DHT22;11018;51.258;6.806;2023-06-05T03:25:22;13.50;59.60
4354;DHT22;11018;51.258;6.806;2023-06-05T03:27:49;13.50;59.80
4354;DHT22;11018;51.258;6.806;2023-06-05T03:30:14;13.50;59.60
4354;DHT22;11018;51.258;6.806;2023-06-05T03:32:44;13.40;59.90
4354;DHT22;11018;51.258;6.806;2023-06-05T03:35:09;13.30;60.70
4354;DHT22;11018;51.258;6.806;2023-06-05T03:37:35;13.30;61.40
4354;DHT22;11018;51.258;6.806;2023-06-05T03:40:01;13.40;60.80
4354;DHT22;11018;51.258;6.806;2023-06-05T03:42:26;13.40;59.80
4354;DHT22;11018;51.258;6.806;2023-06-05T03:44:52;13.40;59.40
4354;DHT22;11018;51.258;6.806;2023-06-05T03:47:18;13.40;59.60
4354;DHT22;11018;51.258;6.806;2023-06-05T03:49:46;13.40;59.10
4354;DHT22;11018;51.258;6.806;2023-06-05T03:52:13;13.40;59.10
4354;DHT22;11018;51.258;6.806;2023-06-05T03:54:40;13.40;59.00
4354;DHT22;11018;51.258;6.806;2023-06-05T03:57:06;13.50;58.70
4354;DHT22;11018;51.258;6.806;2023-06-05T03:59:34;13.50;58.40
4354;DHT22;11018;51.258;6.806;2023-06-05T04:02:00;13.50;58.60
4354;DHT22;11018;51.258;6.806;2023-06-05T04:04:27;13.40;59.00
4354;DHT22;11018;51.258;6.806;2023-06-05T04:06:56;13.40;58.80
4354;DHT22;11018;51.258;6.806;2023-06-05T04:09:21;13.40;58.40
4354;DHT22;11018;51.258;6.806;2023-06-05T04:11:48;13.50;58.30
4354;DHT22;11018;51.258;6.806;2023-06-05T04:14:14;13.40;58.00
4354;DHT22;11018;51.258;6.806;2023-06-05T04:16:40;13.40;58.00
4354;DHT22;11018;51.258;6.806;2023-06-05T04:19:10;13.40;58.50
4354;DHT22;11018;51.258;6.806;2023-06-05T04:21:36;13.50;58.20
4354;DHT22;11018;51.258;6.806;2023-06-05T04:24:06;13.60;57.10
4354;DHT22;11018;51.258;6.806;2023-06-05T04:26:34;13.60;56.60
4354;DHT22;11018;51.258;6.806;2023-06-05T04:29:00;13.50;57.10
4354;DHT22;11018;51.258;6.806;2023-06-05T04:31:29;13.60;57.60
4354;DHT22;11018;51.258;6.806;2023-06-05T04:33:55;13.70;56.00
4354;DHT22;11018;51.258;6.806;2023-06-05T04:36:22;13.60;56.40
4354;DHT22;11018;51.258;6.806;2023-06-05T04:38:47;13.60;55.60
4354;DHT22;11018;51.258;6.806;2023-06-05T04:41:13;13.70;55.70
4354;DHT22;11018;51.258;6.806;2023-06-05T04:43:39;13.60;55.40
4354;DHT22;11018;51.258;6.806;2023-06-05T04:46:05;13.60;56.20
4354;DHT22;11018;51.258;6.806;2023-06-05T04:48:31;13.70;56.20
4354;DHT22;11018;51.258;6.806;2023-06-05T04:50:56;13.70;55.10
4354;DHT22;11018;51.258;6.806;2023-06-05T04:53:23;13.80;54.50
4354;DHT22;11018;51.258;6.806;2023-06-05T04:55:48;13.80;55.00
4354;DHT22;11018;51.258;6.806;2023-06-05T04:58:14;13.90;54.20
4354;DHT22;11018;51.258;6.806;2023-06-05T05:00:44;14.00;53.30
4354;DHT22;11018;51.258;6.806;2023-06-05T05:03:10;14.00;52.70
4354;DHT22;11018;51.258;6.806;2023-06-05T05:05:39;14.10;52.00
4354;DHT22;11018;51.258;6.806;2023-06-05T05:08:05;14.10;52.10
4354;DHT22;11018;51.258;6.806;2023-06-05T05:10:31;14.10;52.40
4354;DHT22;11018;51.258;6.806;2023-06-05T05:12:56;14.10;52.50
4354;DHT22;11018;51.258;6.806;2023-06-05T05:15:26;14.20;52.80
4354;DHT22;11018;51.258;6.806;2023-06-05T05:17:52;14.30;50.20
4354;DHT22;11018;51.258;6.806;2023-06-05T05:20:18;14.40;50.20
4354;DHT22;11018;51.258;6.806;2023-06-05T05:22:44;14.40;50.20
4354;DHT22;11018;51.258;6.806;2023-06-05T05:25:10;14.40;49.70
4354;DHT22;11018;51.258;6.806;2023-06-05T05:27:36;14.50;49.40
4354;DHT22;11018;51.258;6.806;2023-06-05T05:30:02;14.60;49.30
4354;DHT22;11018;51.258;6.806;2023-06-05T05:32:28;14.60;48.50
4354;DHT22;11018;51.258;6.806;2023-06-05T05:34:53;14.70;48.70
4354;DHT22;11018;51.258;6.806;2023-06-05T05:37:19;14.80;46.80
4354;DHT22;11018;51.258;6.806;2023-06-05T05:39:44;14.80;48.00
4354;DHT22;11018;51.258;6.806;2023-06-05T05:42:10;14.80;47.30
4354;DHT22;11018;51.258;6.806;2023-06-05T05:44:36;14.80;47.10
4354;DHT22;11018;51.258;6.806;2023-06-05T05:47:01;15.00;45.90
4354;DHT22;11018;51.258;6.806;2023-06-05T05:49:27;15.00;45.70
4354;DHT22;11018;51.258;6.806;2023-06-05T05:51:53;15.10;45.50
4354;DHT22;11018;51.258;6.806;2023-06-05T05:54:18;15.20;44.90
4354;DHT22;11018;51.258;6.806;2023-06-05T05:56:44;15.30;44.30
4354;DHT22;11018;51.258;6.806;2023-06-05T05:59:12;15.30;44.80
4354;DHT22;11018;51.258;6.806;2023-06-05T06:01:38;15.50;42.50
4354;DHT22;11018;51.258;6.806;2023-06-05T06:04:04;15.60;41.90
4354;DHT22;11018;51.258;6.806;2023-06-05T06:06:29;15.70;41.10
4354;DHT22;11018;51.258;6.806;2023-06-05T06:08:55;15.60;40.90
4354;DHT22;11018;51.258;6.806;2023-06-05T06:11:20;15.60;41.80
4354;DHT22;11018;51.258;6.806;2023-06-05T06:13:46;15.60;41.00
4354;DHT22;11018;51.258;6.806;2023-06-05T06:16:11;15.70;41.40
4354;DHT22;11018;51.258;6.806;2023-06-05T06:18:37;15.80;40.00
4354;DHT22;11018;51.258;6.806;2023-06-05T06:21:02;15.90;39.60
4354;DHT22;11018;51.258;6.806;2023-06-05T06:23:30;16.00;39.40
4354;DHT22;11018;51.258;6.806;2023-06-05T06:25:55;16.20;38.60
4354;DHT22;11018;51.258;6.806;2023-06-05T06:28:21;16.30;37.60
4354;DHT22;11018;51.258;6.806;2023-06-05T06:30:47;16.40;36.90
4354;DHT22;11018;51.258;6.806;2023-06-05T06:33:12;16.40;35.90
4354;DHT22;11018;51.258;6.806;2023-06-05T06:35:38;16.30;37.00
4354;DHT22;11018;51.258;6.806;2023-06-05T06:38:06;16.30;37.30
4354;DHT22;11018;51.258;6.806;2023-06-05T06:40:31;16.40;36.00
4354;DHT22;11018;51.258;6.806;2023-06-05T06:42:57;16.50;35.60
4354;DHT22;11018;51.258;6.806;2023-06-05T06:45:22;16.70;35.40
4354;DHT22;11018;51.258;6.806;2023-06-05T06:47:48;16.80;34.90
4354;DHT22;11018;51.258;6.806;2023-06-05T06:50:13;17.00;33.70
4354;DHT22;11018;51.258;6.806;2023-06-05T06:52:40;17.00;33.80
4354;DHT22;11018;51.258;6.806;2023-06-05T06:55:06;17.10;32.20
4354;DHT22;11018;51.258;6.806;2023-06-05T06:57:32;17.20;31.40
4354;DHT22;11018;51.258;6.806;2023-06-05T06:59:57;17.30;31.80
4354;DHT22;11018;51.258;6.806;2023-06-05T07:02:24;17.30;31.00
4354;DHT22;11018;51.258;6.806;2023-06-05T07:04:51;17.40;30.80
4354;DHT22;11018;51.258;6.806;2023-06-05T07:07:19;17.40;31.10
4354;DHT22;11018;51.258;6.806;2023-06-05T07:09:48;17.60;29.90
4354;DHT22;11018;51.258;6.806;2023-06-05T07:12:14;17.70;29.80
4354;DHT22;11018;51.258;6.806;2023-06-05T07:14:41;17.80;29.90
4354;DHT22;11018;51.258;6.806;2023-06-05T07:17:06;17.90;29.00
4354;DHT22;11018;51.258;6.806;2023-06-05T07:19:33;18.00;27.70
4354;DHT22;11018;51.258;6.806;2023-06-05T07:22:00;17.90;28.00
4354;DHT22;11018;51.258;6.806;2023-06-05T07:24:27;17.90;28.50
4354;DHT22;11018;51.258;6.806;2023-06-05T07:26:54;18.00;27.70
4354;DHT22;11018;51.258;6.806;2023-06-05T07:29:24;18.10;27.80
4354;DHT22;11018;51.258;6.806;2023-06-05T07:31:57;18.20;27.20
4354;DHT22;11018;51.258;6.806;2023-06-05T07:34:24;18.50;26.90
4354;DHT22;11018;51.258;6.806;2023-06-05T07:36:50;18.50;26.10
4354;DHT22;11018;51.258;6.806;2023-06-05T07:39:17;18.50;25.10
4354;DHT22;11018;51.258;6.806;2023-06-05T07:41:43;18.60;25.90
4354;DHT22;11018;51.258;6.806;2023-06-05T07:44:10;18.70;24.80
4354;DHT22;11018;51.258;6.806;2023-06-05T07:46:36;18.70;25.20
4354;DHT22;11018;51.258;6.806;2023-06-05T07:49:01;18.80;24.70
4354;DHT22;11018;51.258;6.806;2023-06-05T07:51:27;18.90;24.10
4354;DHT22;11018;51.258;6.806;2023-06-05T07:53:52;18.90;23.50
4354;DHT22;11018;51.258;6.806;2023-06-05T07:56:18;19.00;23.80
4354;DHT22;11018;51.258;6.806;2023-06-05T07:58:44;19.00;22.70
4354;DHT22;11018;51.258;6.806;2023-06-05T08:01:10;19.00;22.30
4354;DHT22;11018;51.258;6.806;2023-06-05T08:03:38;19.10;21.90
4354;DHT22;11018;51.258;6.806;2023-06-05T08:06:03;19.20;21.40
4354;DHT22;11018;51.258;6.806;2023-06-05T08:08:29;19.30;20.90
4354;DHT22;11018;51.258;6.806;2023-06-05T08:10:55;19.40;20.70
4354;DHT22;11018;51.258;6.806;2023-06-05T08:13:21;19.40;20.20
4354;DHT22;11018;51.258;6.806;2023-06-05T08:15:46;19.50;20.40
4354;DHT22;11018;51.258;6.806;2023-06-05T08:18:12;19.60;19.60
4354;DHT22;11018;51.258;6.806;2023-06-05T08:20:39;19.70;19.20
4354;DHT22;11018;51.258;6.806;2023-06-05T08:23:05;19.70;19.30
4354;DHT22;11018;51.258;6.806;2023-06-05T08:25:31;19.80;18.80
4354;DHT22;11018;51.258;6.806;2023-06-05T08:27:56;19.90;18.50
4354;DHT22;11018;51.258;6.806;2023-06-05T08:30:22;19.90;17.80
4354;DHT22;11018;51.258;6.806;2023-06-05T08:32:47;20.00;17.90
4354;DHT22;11018;51.258;6.806;2023-06-05T08:35:13;20.10;17.80
4354;DHT22;11018;51.258;6.806;2023-06-05T08:37:39;20.20;17.50
4354;DHT22;11018;51.258;6.806;2023-06-05T08:40:06;20.20;17.00
4354;DHT22;11018;51.258;6.806;2023-06-05T08:42:33;20.40;16.10
4354;DHT22;11018;51.258;6.806;2023-06-05T08:44:59;20.50;16.20
4354;DHT22;11018;51.258;6.806;2023-06-05T08:47:28;20.60;15.70
4354;DHT22;11018;51.258;6.806;2023-06-05T08:49:54;20.80;15.90
4354;DHT22;11018;51.258;6.806;2023-06-05T08:52:22;20.80;14.70
4354;DHT22;11018;51.258;6.806;2023-06-05T08:54:49;20.80;15.00
4354;DHT22;11018;51.258;6.806;2023-06-05T08:57:15;20.90;14.80
4354;DHT22;11018;51.258;6.806;2023-06-05T08:59:41;20.80;14.90
4354;DHT22;11018;51.258;6.806;2023-06-05T09:02:09;21.00;14.40
4354;DHT22;11018;51.258;6.806;2023-06-05T09:04:35;21.00;13.70
4354;DHT22;11018;51.258;6.806;2023-06-05T09:07:01;21.10;13.40
4354;DHT22;11018;51.258;6.806;2023-06-05T09:09:27;21.00;13.30
4354;DHT22;11018;51.258;6.806;2023-06-05T09:14:28;21.00;15.80
4354;DHT22;11018;51.258;6.806;2023-06-05T09:16:54;21.30;15.80
4354;DHT22;11018;51.258;6.806;2023-06-05T09:19:19;21.50;14.80
4354;DHT22;11018;51.258;6.806;2023-06-05T09:21:54;21.50;15.10
4354;DHT22;11018;51.258;6.806;2023-06-05T09:24:23;21.50;15.00
4354;DHT22;11018;51.258;6.806;2023-06-05T09:26:55;21.50;14.20
4354;DHT22;11018;51.258;6.806;2023-06-05T09:29:23;21.40;14.10
4354;DHT22;11018;51.258;6.806;2023-06-05T09:31:50;21.40;14.30
4354;DHT22;11018;51.258;6.806;2023-06-05T09:36:50;21.60;15.00
4354;DHT22;11018;51.258;6.806;2023-06-05T09:39:16;21.70;14.00
4354;DHT22;11018;51.258;6.806;2023-06-05T09:41:43;21.80;14.20
4354;DHT22;11018;51.258;6.806;2023-06-05T09:44:10;21.80;14.70
4354;DHT22;11018;51.258;6.806;2023-06-05T09:46:59;21.90;14.60
4354;DHT22;11018;51.258;6.806;2023-06-05T09:49:45;22.10;13.80
4354;DHT22;11018;51.258;6.806;2023-06-05T09:52:12;22.10;12.50
4354;DHT22;11018;51.258;6.806;2023-06-05T09:54:40;22.20;12.90
4354;DHT22;11018;51.258;6.806;2023-06-05T09:57:08;22.30;12.10
4354;DHT22;11018;51.258;6.806;2023-06-05T10:02:16;22.50;10.50
4354;DHT22;11018;51.258;6.806;2023-06-05T10:04:55;22.30;11.40
4354;DHT22;11018;51.258;6.806;2023-06-05T10:07:22;22.40;11.90
4354;DHT22;11018;51.258;6.806;2023-06-05T10:09:49;22.50;11.70
4354;DHT22;11018;51.258;6.806;2023-06-05T10:12:15;22.60;10.40
4354;DHT22;11018;51.258;6.806;2023-06-05T10:14:42;22.70;11.10
4354;DHT22;11018;51.258;6.806;2023-06-05T10:17:08;22.70;10.60
4354;DHT22;11018;51.258;6.806;2023-06-05T10:19:36;22.60;10.00
4354;DHT22;11018;51.258;6.806;2023-06-05T10:22:02;22.60;10.00
4354;DHT22;11018;51.258;6.806;2023-06-05T10:24:34;22.70;9.30
4354;DHT22;11018;51.258;6.806;2023-06-05T10:27:12;22.80;7.90
4354;DHT22;11018;51.258;6.806;2023-06-05T10:35:10;23.00;9.10
4354;DHT22;11018;51.258;6.806;2023-06-05T10:40:27;23.20;5.10
4354;DHT22;11018;51.258;6.806;2023-06-05T10:42:53;23.50;5.00
4354;DHT22;11018;51.258;6.806;2023-06-05T10:45:45;23.60;6.70
4354;DHT22;11018;51.258;6.806;2023-06-05T10:48:11;23.50;5.50
4354;DHT22;11018;51.258;6.806;2023-06-05T10:50:36;23.70;3.30
4354;DHT22;11018;51.258;6.806;2023-06-05T10:53:02;23.90;3.10
4354;DHT22;11018;51.258;6.806;2023-06-05T10:55:41;24.00;3.00
4354;DHT22;11018;51.258;6.806;2023-06-05T10:58:09;24.20;3.30
4354;DHT22;11018;51.258;6.806;2023-06-05T11:00:37;24.20;1.90
4354;DHT22;11018;51.258;6.806;2023-06-05T11:03:04;24.30;1.00
4354;DHT22;11018;51.258;6.806;2023-06-05T11:05:31;24.30;2.20
4354;DHT22;11018;51.258;6.806;2023-06-05T11:08:16;24.20;1.30
4354;DHT22;11018;51.258;6.806;2023-06-05T11:11:04;24.20;1.40
4354;DHT22;11018;51.258;6.806;2023-06-05T11:13:53;24.10;1.00
4354;DHT22;11018;51.258;6.806;2023-06-05T11:16:46;23.80;1.00
4354;DHT22;11018;51.258;6.806;2023-06-05T11:24:28;24.60;2.10
4354;DHT22;11018;51.258;6.806;2023-06-05T11:26:53;24.60;1.90
4354;DHT22;11018;51.258;6.806;2023-06-05T11:29:19;24.40;1.90
4354;DHT22;11018;51.258;6.806;2023-06-05T11:31:45;24.40;2.00
4354;DHT22;11018;51.258;6.806;2023-06-05T11:34:12;24.40;1.50
4354;DHT22;11018;51.258;6.806;2023-06-05T11:36:41;24.50;1.50
4354;DHT22;11018;51.258;6.806;2023-06-05T11:39:07;24.80;1.00
4354;DHT22;11018;51.258;6.806;2023-06-05T11:41:33;24.90;1.00
4354;DHT22;11018;51.258;6.806;2023-06-05T11:43:59;25.20;1.10
4354;DHT22;11018;51.258;6.806;2023-06-05T11:46:40;25.40;1.00
4354;DHT22;11018;51.258;6.806;2023-06-05T11:49:22;25.30;1.00
4354;DHT22;11018;51.258;6.806;2023-06-05T11:51:48;25.20;1.00
4354;DHT22;11018;51.258;6.806;2023-06-05T11:54:24;25.20;1.10
4354;DHT22;11018;51.258;6.806;2023-06-05T11:56:50;25.40;2.00
4354;DHT22;11018;51.258;6.806;2023-06-05T11:59:17;25.60;1.00
4354;DHT22;11018;51.258;6.806;2023-06-05T12:01:44;25.60;1.00
4354;DHT22;11018;51.258;6.806;2023-06-05T12:04:10;25.60;1.00
4354;DHT22;11018;51.258;6.806;2023-06-05T12:06:45;25.70;1.00
4354;DHT22;11018;51.258;6.806;2023-06-05T12:09:13;26.00;1.00
4354;DHT22;11018;51.258;6.806;2023-06-05T12:11:42;26.10;1.00
4354;DHT22;11018;51.258;6.806;2023-06-05T12:14:11;26.10;1.00
4354;DHT22;11018;51.258;6.806;2023-06-05T12:16:39;26.10;1.00
4354;DHT22;11018;51.258;6.806;2023-06-05T12:19:16;26.10;1.90
4354;DHT22;11018;51.258;6.806;2023-06-05T12:21:44;26.20;1.00
4354;DHT22;11018;51.258;6.806;2023-06-05T12:24:10;26.50;1.00
4354;DHT22;11018;51.258;6.806;2023-06-05T12:26:49;26.60;1.00
4354;DHT22;11018;51.258;6.806;2023-06-05T12:31:52;26.60;1.00
4354;DHT22;11018;51.258;6.806;2023-06-05T12:34:18;26.40;1.00
4354;DHT22;11018;51.258;6.806;2023-06-05T12:36:44;26.10;1.00
4354;DHT22;11018;51.258;6.806;2023-06-05T12:39:14;26.20;1.00
4354;DHT22;11018;51.258;6.806;2023-06-05T12:41:41;26.30;1.00
4354;DHT22;11018;51.258;6.806;2023-06-05T12:44:07;26.30;1.00
4354;DHT22;11018;51.258;6.806;2023-06-05T12:46:34;25.90;1.00
4354;DHT22;11018;51.258;6.806;2023-06-05T12:49:00;25.70;1.00
4354;DHT22;11018;51.258;6.806;2023-06-05T12:51:27;25.50;1.00
4354;DHT22;11018;51.258;6.806;2023-06-05T12:53:56;25.60;1.00
4354;DHT22;11018;51.258;6.806;2023-06-05T12:56:23;25.80;1.00
4354;DHT22;11018;51.258;6.806;2023-06-05T12:58:53;26.00;1.00
4354;DHT22;11018;51.258;6.806;2023-06-05T13:01:18;26.20;1.00
4354;DHT22;11018;51.258;6.806;2023-06-05T13:03:44;26.40;1.00
4354;DHT22;11018;51.258;6.806;2023-06-05T13:06:10;26.50;1.00
4354;DHT22;11018;51.258;6.806;2023-06-05T13:08:35;26.40;1.00
4354;DHT22;11018;51.258;6.806;2023-06-05T13:11:01;26.10;1.00
4354;DHT22;11018;51.258;6.806;2023-06-05T13:13:27;25.80;1.00
4354;DHT22;11018;51.258;6.806;2023-06-05T13:15:53;26.00;1.00
4354;DHT22;11018;51.258;6.806;2023-06-05T13:18:19;26.70;1.00
4354;DHT22;11018;51.258;6.806;2023-06-05T13:20:44;27.10;1.00
4354;DHT22;11018;51.258;6.806;2023-06-05T13:23:10;28.00;1.00
4354;DHT22;11018;51.258;6.806;2023-06-05T13:25:36;28.10;1.00
4354;DHT22;11018;51.258;6.806;2023-06-05T13:28:02;28.60;1.00
4354;DHT22;11018;51.258;6.806;2023-06-05T13:30:28;28.20;1.00
4354;DHT22;11018;51.258;6.806;2023-06-05T13:32:54;27.00;1.00
4354;DHT22;11018;51.258;6.806;2023-06-05T13:35:19;27.00;1.00
4354;DHT22;11018;51.258;6.806;2023-06-05T13:37:45;27.60;1.00
4354;DHT22;11018;51.258;6.806;2023-06-05T13:40:14;28.60;1.00
4354;DHT22;11018;51.258;6.806;2023-06-05T13:42:40;29.20;1.00
4354;DHT22;11018;51.258;6.806;2023-06-05T13:45:06;29.10;1.00
4354;DHT22;11018;51.258;6.806;2023-06-05T13:47:32;29.40;1.00
4354;DHT22;11018;51.258;6.806;2023-06-05T13:49:58;29.80;1.00
4354;DHT22;11018;51.258;6.806;2023-06-05T13:52:23;30.70;1.00
4354;DHT22;11018;51.258;6.806;2023-06-05T13:54:49;30.50;1.00
4354;DHT22;11018;51.258;6.806;2023-06-05T13:57:15;30.80;1.00
4354;DHT22;11018;51.258;6.806;2023-06-05T13:59:43;30.60;1.00
4354;DHT22;11018;51.258;6.806;2023-06-05T14:02:08;29.70;1.00
4354;DHT22;11018;51.258;6.806;2023-06-05T14:04:34;30.20;1.00
4354;DHT22;11018;51.258;6.806;2023-06-05T14:07:00;30.30;1.00
4354;DHT22;11018;51.258;6.806;2023-06-05T14:09:26;29.10;1.00
4354;DHT22;11018;51.258;6.806;2023-06-05T14:11:53;28.80;1.00
4354;DHT22;11018;51.258;6.806;2023-06-05T14:14:18;29.30;1.00
4354;DHT22;11018;51.258;6.806;2023-06-05T14:16:44;30.10;1.00
4354;DHT22;11018;51.258;6.806;2023-06-05T14:19:09;30.80;1.00
4354;DHT22;11018;51.258;6.806;2023-06-05T14:21:35;31.20;1.00
4354;DHT22;11018;51.258;6.806;2023-06-05T14:24:03;31.80;1.00
4354;DHT22;11018;51.258;6.806;2023-06-05T14:26:29;32.10;1.00
4354;DHT22;11018;51.258;6.806;2023-06-05T14:28:55;32.80;1.00
4354;DHT22;11018;51.258;6.806;2023-06-05T14:31:20;33.00;1.00
4354;DHT22;11018;51.258;6.806;2023-06-05T14:33:50;33.10;1.00
4354;DHT22;11018;51.258;6.806;2023-06-05T14:36:16;33.20;1.00
4354;DHT22;11018;51.258;6.806;2023-06-05T14:38:42;32.60;1.00
4354;DHT22;11018;51.258;6.806;2023-06-05T14:41:07;32.80;1.00
4354;DHT22;11018;51.258;6.806;2023-06-05T14:43:33;32.50;1.00
4354;DHT22;11018;51.258;6.806;2023-06-05T14:45:58;32.00;1.00
4354;DHT22;11018;51.258;6.806;2023-06-05T14:48:25;31.40;1.00
4354;DHT22;11018;51.258;6.806;2023-06-05T14:50:51;31.10;1.00
4354;DHT22;11018;51.258;6.806;2023-06-05T14:53:18;31.80;1.00
4354;DHT22;11018;51.258;6.806;2023-06-05T14:55:44;31.30;1.00
4354;DHT22;11018;51.258;6.806;2023-06-05T14:58:09;31.50;1.00
4354;DHT22;11018;51.258;6.806;2023-06-05T15:00:36;31.80;1.00
4354;DHT22;11018;51.258;6.806;2023-06-05T15:03:02;32.60;1.00
4354;DHT22;11018;51.258;6.806;2023-06-05T15:05:28;33.00;1.00
4354;DHT22;11018;51.258;6.806;2023-06-05T15:07:53;33.40;1.00
4354;DHT22;11018;51.258;6.806;2023-06-05T15:10:19;33.10;1.00
4354;DHT22;11018;51.258;6.806;2023-06-05T15:12:45;31.40;1.00
4354;DHT22;11018;51.258;6.806;2023-06-05T15:15:10;31.50;1.00
4354;DHT22;11018;51.258;6.806;2023-06-05T15:17:36;31.20;1.00
4354;DHT22;11018;51.258;6.806;2023-06-05T15:20:02;30.40;1.00
4354;DHT22;11018;51.258;6.806;2023-06-05T15:22:30;31.40;1.00
4354;DHT22;11018;51.258;6.806;2023-06-05T15:24:55;30.70;1.00
4354;DHT22;11018;51.258;6.806;2023-06-05T15:27:21;30.90;1.00
4354;DHT22;11018;51.258;6.806;2023-06-05T15:29:47;32.10;1.00
4354;DHT22;11018;51.258;6.806;2023-06-05T15:32:12;32.10;1.00
4354;DHT22;11018;51.258;6.806;2023-06-05T15:34:38;32.30;1.00
4354;DHT22;11018;51.258;6.806;2023-06-05T15:37:08;32.90;1.00
4354;DHT22;11018;51.258;6.806;2023-06-05T15:39:34;33.50;1.00
4354;DHT22;11018;51.258;6.806;2023-06-05T15:41:59;33.60;1.00
4354;DHT22;11018;51.258;6.806;2023-06-05T15:44:25;31.70;1.00
4354;DHT22;11018;51.258;6.806;2023-06-05T15:46:51;30.90;1.00
4354;DHT22;11018;51.258;6.806;2023-06-05T15:49:16;31.30;1.00
4354;DHT22;11018;51.258;6.806;2023-06-05T15:51:42;32.00;1.00
4354;DHT22;11018;51.258;6.806;2023-06-05T15:54:07;32.10;1.00
4354;DHT22;11018;51.258;6.806;2023-06-05T15:56:33;32.90;1.00
4354;DHT22;11018;51.258;6.806;2023-06-05T15:58:59;32.40;1.00
4354;DHT22;11018;51.258;6.806;2023-06-05T16:01:25;32.40;1.00
4354;DHT22;11018;51.258;6.806;2023-06-05T16:03:51;32.10;1.00
4354;DHT22;11018;51.258;6.806;2023-06-05T16:06:17;31.90;1.00
4354;DHT22;11018;51.258;6.806;2023-06-05T16:08:43;32.90;1.00
4354;DHT22;11018;51.258;6.806;2023-06-05T16:11:08;33.50;1.00
4354;DHT22;11018;51.258;6.806;2023-06-05T16:13:37;34.30;1.00
4354;DHT22;11018;51.258;6.806;2023-06-05T16:16:05;33.10;1.00
4354;DHT22;11018;51.258;6.806;2023-06-05T16:18:30;33.30;1.00
4354;DHT22;11018;51.258;6.806;2023-06-05T16:20:56;33.60;1.00
4354;DHT22;11018;51.258;6.806;2023-06-05T16:23:21;33.90;1.00